Time;durP1;ratioP1;P1;durP2;ratioP2;P2;SDS_P1;SDS_P2;PMS_P1;PMS_P2;Temp;Humidity;BMP_temperature;BMP_pressure;BME280_temperature;BME280_humidity;BME280_pressure;Samples;Min_cycle;Max_cycle;Signal;HPM_P1;HPM_P2
2023/01/08 00:01:31;;;;;;;3.78;2.30;;;9.70;99.90;;;;;;4995136;28;20504;-69
2023/01/08 00:04:04;;;;;;;6.82;3.55;;;9.80;99.90;;;;;;5012586;28;20042;-68
2023/01/08 00:06:30;;;;;;;4.22;3.08;;;9.80;99.90;;;;;;4995370;28;20057;-69
2023/01/08 00:09:02;;;;;;;4.65;2.70;;;9.70;99.90;;;;;;4995471;28;20049;-67
2023/01/08 00:11:28;;;;;;;5.28;3.05;;;9.80;99.90;;;;;;4994671;28;20494;-71
2023/01/08 00:14:00;;;;;;;11.30;4.53;;;9.80;99.90;;;;;;4995556;28;20042;-70
2023/01/08 00:16:26;;;;;;;5.88;3.00;;;9.80;99.90;;;;;;4996077;28;20053;-67
2023/01/08 00:18:59;;;;;;;5.05;2.92;;;9.80;99.90;;;;;;4996311;28;20120;-71
2023/01/08 00:21:24;;;;;;;5.38;3.13;;;9.70;99.90;;;;;;5017130;28;20061;-70
2023/01/08 00:23:57;;;;;;;5.03;2.88;;;9.80;99.90;;;;;;4994923;28;20411;-68
2023/01/08 00:26:22;;;;;;;4.95;2.83;;;9.80;99.90;;;;;;4994755;28;20049;-69
2023/01/08 00:28:55;;;;;;;4.85;2.53;;;9.70;99.90;;;;;;4994854;28;20042;-68
2023/01/08 00:31:20;;;;;;;3.97;2.42;;;9.70;99.90;;;;;;5011874;28;20042;-68
2023/01/08 00:33:53;;;;;;;3.67;1.85;;;9.80;99.90;;;;;;5013540;28;20050;-69
2023/01/08 00:36:19;;;;;;;5.07;3.30;;;9.80;99.90;;;;;;5012512;28;20052;-69
2023/01/08 00:38:58;;;;;;;4.35;2.78;;;9.80;99.90;;;;;;4995944;28;20042;-69
2023/01/08 00:41:23;;;;;;;4.60;2.90;;;9.80;99.90;;;;;;4996100;28;20129;-69
2023/01/08 00:43:56;;;;;;;5.90;2.38;;;9.70;99.90;;;;;;4996038;28;20132;-70
2023/01/08 00:46:21;;;;;;;6.53;2.60;;;9.70;99.90;;;;;;4996223;28;20428;-70
2023/01/08 00:48:54;;;;;;;4.47;2.30;;;9.70;99.90;;;;;;5011636;28;20125;-70
2023/01/08 00:51:19;;;;;;;3.88;2.20;;;9.70;99.90;;;;;;4994918;28;20556;-69
2023/01/08 00:53:52;;;;;;;4.65;2.47;;;9.70;99.90;;;;;;5011364;28;20117;-69
2023/01/08 00:56:17;;;;;;;3.15;1.95;;;9.70;99.90;;;;;;5011244;28;20397;-69
2023/01/08 00:58:56;;;;;;;3.20;1.85;;;9.60;99.90;;;;;;5012899;28;20129;-69
2023/01/08 01:01:28;;;;;;;3.33;2.70;;;9.60;99.90;;;;;;4994748;28;20133;-69
2023/01/08 01:04:01;;;;;;;3.53;2.35;;;9.70;99.90;;;;;;5010867;28;20526;-69
2023/01/08 01:06:26;;;;;;;8.30;3.20;;;9.70;99.90;;;;;;5010111;28;20054;-70
2023/01/08 01:08:59;;;;;;;6.00;2.67;;;9.70;99.90;;;;;;4994401;28;20096;-69
2023/01/08 01:11:27;;;;;;;5.75;2.67;;;9.70;99.90;;;;;;5011880;28;20050;-69
2023/01/08 01:14:01;;;;;;;8.50;3.05;;;9.70;99.90;;;;;;4993830;28;20040;-69
2023/01/08 01:16:27;;;;;;;7.53;2.90;;;9.70;99.90;;;;;;4994092;28;20042;-69
2023/01/08 01:19:00;;;;;;;6.05;2.33;;;9.60;99.90;;;;;;4994067;28;20045;-69
2023/01/08 01:21:30;;;;;;;4.45;2.22;;;9.60;99.90;;;;;;4993465;28;20049;-69
2023/01/08 01:24:07;;;;;;;5.28;1.80;;;9.60;99.90;;;;;;4994247;28;20399;-69
2023/01/08 01:26:33;;;;;;;9.85;2.88;;;9.50;99.90;;;;;;4993944;28;20045;-70
2023/01/08 01:29:06;;;;;;;6.80;3.35;;;9.40;99.90;;;;;;4977114;28;20045;-69
2023/01/08 01:31:33;;;;;;;4.97;1.80;;;9.40;99.90;;;;;;4993829;28;20064;-69
2023/01/08 01:34:06;;;;;;;2.83;1.50;;;9.30;99.90;;;;;;5010758;28;20045;-70
2023/01/08 01:36:31;;;;;;;5.00;2.05;;;9.30;99.90;;;;;;5011284;28;20490;-69
2023/01/08 01:39:04;;;;;;;10.77;2.05;;;9.20;99.90;;;;;;4994038;28;20046;-70
2023/01/08 01:41:31;;;;;;;6.47;1.48;;;9.10;99.90;;;;;;4993217;28;20184;-70
2023/01/08 01:44:40;;;;;;;8.52;1.58;;;9.00;99.90;;;;;;4993512;28;20128;-70
2023/01/08 01:47:38;;;;;;;8.55;1.60;;;9.00;99.90;;;;;;4993713;28;20045;-69
2023/01/08 01:50:26;;;;;;;6.43;1.45;;;8.90;99.90;;;;;;4992912;28;20049;-70
2023/01/08 01:53:18;;;;;;;8.80;2.13;;;8.90;99.90;;;;;;4993389;28;20040;-69
2023/01/08 01:55:45;;;;;;;5.18;1.58;;;8.80;99.90;;;;;;4992908;28;20042;-70
2023/01/08 01:58:19;;;;;;;8.25;2.33;;;8.80;99.90;;;;;;5011924;28;20108;-70
2023/01/08 02:01:03;;;;;;;7.72;1.38;;;8.80;99.90;;;;;;5010874;28;20054;-69
2023/01/08 02:03:40;;;;;;;8.57;1.98;;;8.70;99.90;;;;;;4992098;28;20052;-70
2023/01/08 02:06:24;;;;;;;5.93;1.35;;;8.70;99.90;;;;;;5011746;28;20048;-70
2023/01/08 02:09:22;;;;;;;11.68;2.45;;;8.60;99.90;;;;;;4977462;28;20096;-70
2023/01/08 02:12:16;;;;;;;7.30;1.90;;;8.50;99.90;;;;;;5011453;28;20081;-70
2023/01/08 02:15:10;;;;;;;10.85;1.98;;;8.50;99.90;;;;;;5011942;28;20053;-70
2023/01/08 02:17:45;;;;;;;13.75;1.90;;;8.50;99.90;;;;;;5011176;28;20348;-70
2023/01/08 02:20:17;;;;;;;6.15;1.67;;;8.50;99.90;;;;;;4993903;28;20581;-70
2023/01/08 02:23:21;;;;;;;9.90;2.05;;;8.40;99.90;;;;;;4977413;28;20125;-70
2023/01/08 02:26:05;;;;;;;8.23;1.55;;;8.40;99.90;;;;;;4993130;28;20403;-70
2023/01/08 02:28:43;;;;;;;8.52;1.75;;;8.30;99.90;;;;;;4993764;28;20112;-70
2023/01/08 02:31:09;;;;;;;18.80;2.88;;;8.30;99.90;;;;;;5010561;28;20092;-70
2023/01/08 02:33:42;;;;;;;10.57;3.22;;;8.30;99.90;;;;;;4993660;28;20069;-70
2023/01/08 02:36:13;;;;;;;9.52;1.48;;;8.20;99.90;;;;;;5011353;28;20076;-70
2023/01/08 02:39:31;;;;;;;8.57;1.90;;;8.20;99.90;;;;;;4992961;28;20034;-70
2023/01/08 02:42:27;;;;;;;8.57;2.03;;;8.20;99.90;;;;;;5011068;28;20045;-69
2023/01/08 02:44:58;;;;;;;7.53;1.70;;;8.20;99.90;;;;;;4984437;28;20077;-70
2023/01/08 02:47:51;;;;;;;13.82;1.73;;;8.20;99.90;;;;;;5010880;28;20506;-70
2023/01/08 02:50:29;;;;;;;7.18;1.58;;;8.20;99.90;;;;;;4993385;28;20185;-69
2023/01/08 02:53:32;;;;;;;9.07;2.83;;;8.20;99.90;;;;;;4992818;28;20120;-69
2023/01/08 02:56:09;;;;;;;6.10;1.50;;;8.30;99.90;;;;;;4993572;28;20044;-70
2023/01/08 02:58:45;;;;;;;7.78;1.70;;;8.20;99.90;;;;;;4993567;28;20394;-70
2023/01/08 03:01:26;;;;;;;10.15;1.77;;;8.20;99.90;;;;;;4993311;28;20065;-69
2023/01/08 03:04:26;;;;;;;8.30;1.70;;;8.20;99.90;;;;;;4977087;28;20399;-70
2023/01/08 03:06:59;;;;;;;6.15;1.70;;;8.10;99.90;;;;;;4992737;28;20133;-70
2023/01/08 03:09:25;;;;;;;7.95;1.80;;;8.10;99.90;;;;;;5010651;28;20482;-70
2023/01/08 03:12:10;;;;;;;4.10;1.27;;;8.00;99.90;;;;;;4992449;28;20153;-70
2023/01/08 03:14:41;;;;;;;7.07;1.80;;;7.90;99.90;;;;;;4993211;28;20344;-70
2023/01/08 03:17:24;;;;;;;7.03;1.60;;;7.90;99.90;;;;;;5010831;28;20050;-70
2023/01/08 03:19:54;;;;;;;13.85;1.92;;;7.80;99.90;;;;;;4992483;28;20040;-69
2023/01/08 03:22:29;;;;;;;6.90;1.45;;;7.80;99.90;;;;;;5010333;28;20045;-70
2023/01/08 03:25:04;;;;;;;6.40;1.80;;;7.80;99.90;;;;;;5010537;28;20479;-70
2023/01/08 03:27:40;;;;;;;6.82;2.13;;;7.80;99.90;;;;;;5009738;28;20080;-70
2023/01/08 03:30:08;;;;;;;9.23;1.75;;;7.80;99.90;;;;;;4992822;28;20510;-70
2023/01/08 03:32:41;;;;;;;9.90;2.20;;;7.80;99.90;;;;;;4992963;28;20095;-69
2023/01/08 03:35:11;;;;;;;6.07;1.55;;;7.80;99.90;;;;;;4976416;28;20063;-69
2023/01/08 03:37:48;;;;;;;4.35;1.65;;;7.80;99.90;;;;;;5010430;28;20483;-70
2023/01/08 03:40:21;;;;;;;5.05;1.63;;;7.90;99.90;;;;;;4992441;28;20042;-69
2023/01/08 03:42:54;;;;;;;6.07;2.03;;;8.00;99.90;;;;;;4976674;28;20471;-70
2023/01/08 03:45:22;;;;;;;6.53;1.67;;;8.00;99.90;;;;;;4992694;28;20118;-69
2023/01/08 03:47:55;;;;;;;5.75;1.60;;;8.00;99.90;;;;;;5009985;28;20034;-70
2023/01/08 03:50:25;;;;;;;6.22;1.88;;;8.10;99.90;;;;;;4992860;28;20100;-70
2023/01/08 03:52:57;;;;;;;;;;;8.20;99.90;;;;;;4993146;28;20042;-70
2023/01/08 03:55:22;;;;;;;8.48;2.22;;;8.20;99.90;;;;;;4992128;28;19917;-70
2023/01/08 03:57:54;;;;;;;4.30;2.08;;;8.20;99.90;;;;;;4992964;28;20057;-70
2023/01/08 04:00:34;;;;;;;5.57;1.80;;;8.20;99.90;;;;;;4992608;28;20132;-70
2023/01/08 04:03:06;;;;;;;7.05;1.83;;;8.20;99.90;;;;;;5009673;28;20042;-69
2023/01/08 04:05:32;;;;;;;8.45;2.65;;;8.20;99.90;;;;;;5010364;28;20430;-70
2023/01/08 04:08:04;;;;;;;5.82;2.30;;;8.10;99.90;;;;;;4992391;28;20045;-70
2023/01/08 04:10:30;;;;;;;7.05;2.40;;;8.10;99.90;;;;;;5010082;28;20041;-70
2023/01/08 04:13:02;;;;;;;6.75;2.63;;;8.10;99.90;;;;;;4992807;28;20553;-72
2023/01/08 04:15:28;;;;;;;4.82;2.30;;;8.10;99.90;;;;;;5009574;28;20046;-73
2023/01/08 04:18:00;;;;;;;9.32;2.42;;;8.20;99.90;;;;;;4992505;28;20038;-73
2023/01/08 04:20:26;;;;;;;4.65;2.58;;;8.20;99.90;;;;;;5010081;28;20057;-73
2023/01/08 04:23:04;;;;;;;5.38;2.40;;;8.20;99.90;;;;;;5009351;28;20382;-72
2023/01/08 04:25:37;;;;;;;5.78;2.88;;;8.30;99.90;;;;;;4992000;28;20046;-72
2023/01/08 04:28:10;;;;;;;5.85;3.17;;;8.30;99.90;;;;;;4994253;28;20532;-72
2023/01/08 04:30:36;;;;;;;3.50;2.08;;;8.40;99.90;;;;;;4994481;28;20068;-72
2023/01/08 04:33:08;;;;;;;5.78;2.10;;;8.40;99.90;;;;;;4996291;28;20034;-72
2023/01/08 04:35:34;;;;;;;6.60;2.25;;;8.40;99.90;;;;;;4995713;28;20053;-72
2023/01/08 04:38:06;;;;;;;5.57;2.35;;;8.40;99.90;;;;;;4995540;28;20034;-71
2023/01/08 04:40:33;;;;;;;8.05;2.67;;;8.40;99.90;;;;;;5013452;28;20048;-73
2023/01/08 04:43:05;;;;;;;7.63;3.00;;;8.40;99.90;;;;;;5012783;28;20135;-72
2023/01/08 04:45:31;;;;;;;6.60;2.30;;;8.40;99.90;;;;;;5013436;28;20046;-72
2023/01/08 04:48:06;;;;;;;6.38;2.08;;;8.40;99.90;;;;;;5013260;28;20048;-73
2023/01/08 04:50:32;;;;;;;4.40;2.20;;;8.40;99.90;;;;;;4994776;28;20042;-73
2023/01/08 04:53:04;;;;;;;5.90;2.30;;;8.40;99.90;;;;;;4979562;28;20125;-72
2023/01/08 04:55:30;;;;;;;4.93;1.67;;;8.40;99.90;;;;;;4995810;28;20443;-73
2023/01/08 04:58:02;;;;;;;4.20;1.60;;;8.40;99.90;;;;;;4995448;28;20081;-73
2023/01/08 05:00:42;;;;;;;3.63;1.80;;;8.40;99.90;;;;;;4995294;28;20084;-70
2023/01/08 05:03:15;;;;;;;3.95;1.52;;;8.50;99.90;;;;;;4979332;28;20046;-73
2023/01/08 05:05:40;;;;;;;3.47;1.70;;;8.50;99.90;;;;;;5014259;28;20041;-73
2023/01/08 05:08:12;;;;;;;4.25;1.60;;;8.50;99.90;;;;;;5014853;28;20067;-72
2023/01/08 05:10:38;;;;;;;5.07;1.83;;;8.50;99.90;;;;;;5007103;28;20041;-72
2023/01/08 05:13:10;;;;;;;3.53;1.50;;;8.50;99.90;;;;;;5014392;28;20049;-73
2023/01/08 05:15:43;;;;;;;6.13;1.67;;;8.50;99.90;;;;;;5032634;28;20045;-73
2023/01/08 05:18:16;;;;;;;8.90;2.40;;;8.40;99.90;;;;;;5014355;28;20077;-72
2023/01/08 05:20:41;;;;;;;5.68;1.77;;;8.40;99.90;;;;;;5014907;28;20374;-72
2023/01/08 05:23:13;;;;;;;3.72;1.45;;;8.30;99.90;;;;;;5032542;28;20041;-73
2023/01/08 05:25:39;;;;;;;3.97;1.95;;;8.30;99.90;;;;;;5031756;28;20045;-73
2023/01/08 05:28:11;;;;;;;5.05;1.80;;;8.20;99.90;;;;;;5032089;28;20048;-72
2023/01/08 05:30:37;;;;;;;4.75;1.70;;;8.20;99.90;;;;;;5014408;28;20053;-72
2023/01/08 05:33:09;;;;;;;4.25;1.40;;;8.10;99.90;;;;;;4997687;28;20041;-72
2023/01/08 05:35:38;;;;;;;4.15;1.50;;;8.10;99.90;;;;;;4998144;28;20536;-73
2023/01/08 05:38:10;;;;;;;2.88;1.10;;;8.00;99.90;;;;;;5031480;28;20040;-73
2023/01/08 05:40:36;;;;;;;3.65;1.17;;;8.10;99.90;;;;;;4982038;28;20049;-73
2023/01/08 05:43:08;;;;;;;5.78;1.40;;;8.10;99.90;;;;;;5014495;28;20041;-72
2023/01/08 05:45:34;;;;;;;5.50;2.05;;;8.10;99.90;;;;;;5014076;28;20045;-72
2023/01/08 05:48:10;;;;;;;7.03;1.50;;;8.10;99.90;;;;;;5030251;28;20124;-72
2023/01/08 05:50:36;;;;;;;2.20;1.23;;;8.00;99.90;;;;;;5013371;28;20052;-73
2023/01/08 05:53:11;;;;;;;7.65;1.73;;;8.00;99.90;;;;;;5030340;28;20041;-76
2023/01/08 05:55:37;;;;;;;3.78;1.77;;;8.00;99.90;;;;;;5013346;28;20392;-73
2023/01/08 05:58:11;;;;;;;3.88;1.35;;;8.00;99.90;;;;;;5012355;28;20128;-73
2023/01/08 06:00:51;;;;;;;5.07;2.13;;;7.90;99.90;;;;;;5012548;28;20465;-73
2023/01/08 06:03:26;;;;;;;4.38;1.70;;;7.80;99.90;;;;;;5012769;28;20045;-74
2023/01/08 06:05:56;;;;;;;4.05;1.60;;;7.80;99.90;;;;;;5030498;28;20532;-73
2023/01/08 06:08:28;;;;;;;7.57;2.05;;;7.70;99.90;;;;;;5012717;28;20045;-71
2023/01/08 06:11:02;;;;;;;6.45;2.47;;;7.70;99.90;;;;;;5013893;28;20045;-72
2023/01/08 06:13:36;;;;;;;9.27;3.70;;;7.70;99.90;;;;;;5031555;28;20034;-74
2023/01/08 06:16:02;;;;;;;8.82;3.45;;;7.70;99.90;;;;;;5013416;28;20409;-73
2023/01/08 06:18:35;;;;;;;6.32;2.88;;;7.60;99.90;;;;;;5014120;28;20041;-73
2023/01/08 06:21:03;;;;;;;6.85;2.65;;;7.60;99.90;;;;;;5013267;28;20049;-74
2023/01/08 06:23:35;;;;;;;7.05;3.00;;;7.60;99.90;;;;;;5031441;28;20087;-74
2023/01/08 06:26:03;;;;;;;6.63;3.10;;;7.50;99.90;;;;;;5013689;28;20045;-74
2023/01/08 06:28:43;;;;;;;5.72;3.00;;;7.50;99.90;;;;;;5013321;28;20417;-73
2023/01/08 06:31:08;;;;;;;8.43;3.53;;;7.50;99.90;;;;;;5013362;28;20049;-72
2023/01/08 06:33:40;;;;;;;5.55;2.60;;;7.50;99.90;;;;;;5013549;28;20108;-72
2023/01/08 06:36:07;;;;;;;4.53;2.60;;;7.50;99.90;;;;;;5012549;28;20048;-72
2023/01/08 06:38:40;;;;;;;5.18;2.70;;;7.40;99.90;;;;;;5013316;28;20080;-71
2023/01/08 06:41:09;;;;;;;7.80;2.60;;;7.40;99.90;;;;;;5013374;28;20425;-72
2023/01/08 06:43:41;;;;;;;5.40;2.65;;;7.30;99.90;;;;;;5012752;28;20052;-71
2023/01/08 06:46:08;;;;;;;5.63;3.10;;;7.30;99.90;;;;;;5031123;28;20053;-71
2023/01/08 06:48:40;;;;;;;5.00;2.88;;;7.30;99.90;;;;;;5030816;28;20057;-71
2023/01/08 06:51:06;;;;;;;7.80;2.67;;;7.30;99.90;;;;;;5011724;28;20047;-71
2023/01/08 06:53:39;;;;;;;7.35;3.13;;;7.30;99.90;;;;;;5013207;28;20124;-72
2023/01/08 06:56:08;;;;;;;9.13;2.88;;;7.30;99.90;;;;;;5028878;28;20045;-71
2023/01/08 06:58:40;;;;;;;10.18;2.60;;;7.30;99.90;;;;;;5030363;28;20089;-71
2023/01/08 07:01:21;;;;;;;7.70;2.30;;;7.30;99.90;;;;;;5012780;28;20526;-71
2023/01/08 07:03:53;;;;;;;6.22;2.70;;;7.30;99.90;;;;;;5012426;28;20055;-71
2023/01/08 07:06:21;;;;;;;7.78;2.63;;;7.30;99.90;;;;;;5030633;28;20072;-71
2023/01/08 07:08:55;;;;;;;5.68;2.78;;;7.20;99.90;;;;;;4996872;28;20441;-71
2023/01/08 07:11:20;;;;;;;9.30;3.13;;;7.20;99.90;;;;;;5012113;28;20088;-70
2023/01/08 07:13:52;;;;;;;5.55;2.47;;;7.20;99.90;;;;;;5030294;28;20069;-70
2023/01/08 07:16:18;;;;;;;9.45;3.42;;;7.10;99.90;;;;;;5012796;28;20120;-70
2023/01/08 07:18:50;;;;;;;7.03;2.67;;;7.10;99.90;;;;;;5012447;28;20080;-70
2023/01/08 07:21:16;;;;;;;8.45;2.13;;;7.10;99.90;;;;;;5012754;28;20085;-69
2023/01/08 07:23:58;;;;;;;5.40;2.20;;;7.10;99.90;;;;;;5030508;28;20077;-70
2023/01/08 07:26:24;;;;;;;6.32;2.60;;;7.10;99.90;;;;;;5030204;28;20049;-70
2023/01/08 07:28:55;;;;;;;6.90;2.45;;;7.10;99.90;;;;;;5030277;28;20378;-70
2023/01/08 07:31:21;;;;;;;6.93;2.25;;;7.10;99.90;;;;;;5012167;28;20041;-70
2023/01/08 07:33:53;;;;;;;4.95;2.15;;;7.10;99.90;;;;;;5012696;28;20072;-70
2023/01/08 07:36:21;;;;;;;8.95;3.28;;;7.10;99.90;;;;;;5030435;28;20049;-69
2023/01/08 07:38:56;;;;;;;3.60;1.80;;;7.10;99.90;;;;;;5012220;28;20045;-69
2023/01/08 07:41:22;;;;;;;4.97;2.15;;;7.10;99.90;;;;;;5012472;28;20681;-70
2023/01/08 07:43:54;;;;;;;4.95;1.95;;;7.10;99.90;;;;;;5012489;28;20042;-70
2023/01/08 07:46:21;;;;;;;9.55;1.88;;;7.10;99.90;;;;;;5011913;28;20094;-70
2023/01/08 07:48:53;;;;;;;6.47;2.08;;;7.10;99.90;;;;;;4996428;28;20049;-70
2023/01/08 07:51:19;;;;;;;5.68;2.15;;;7.00;99.90;;;;;;5012305;28;20389;-70
2023/01/08 07:53:51;;;;;;;6.82;1.63;;;7.10;99.90;;;;;;5029830;28;20029;-70
2023/01/08 07:56:18;;;;;;;5.07;1.50;;;7.00;99.90;;;;;;5030315;28;20049;-70
2023/01/08 07:58:51;;;;;;;4.65;1.48;;;7.00;99.90;;;;;;5029659;28;20049;-70
2023/01/08 08:01:30;;;;;;;7.65;1.50;;;7.10;99.90;;;;;;5030625;28;20390;-73
2023/01/08 08:04:02;;;;;;;5.45;1.38;;;7.00;99.90;;;;;;4991544;28;20112;-71
2023/01/08 08:06:28;;;;;;;16.70;1.83;;;7.00;99.90;;;;;;4996780;28;20048;-69
2023/01/08 08:09:02;;;;;;;6.15;1.80;;;7.10;99.90;;;;;;5033717;28;20041;-69
2023/01/08 08:11:37;;;;;;;8.18;1.50;;;7.00;99.90;;;;;;5033908;28;20045;-69
2023/01/08 08:14:09;;;;;;;9.70;1.73;;;7.00;99.90;;;;;;5033920;28;20045;-69
2023/01/08 08:16:35;;;;;;;5.95;1.92;;;7.00;99.90;;;;;;4997430;28;20104;-72
2023/01/08 08:19:07;;;;;;;8.63;2.17;;;7.00;99.90;;;;;;4998015;28;20073;-70
2023/01/08 08:21:33;;;;;;;8.00;1.60;;;7.00;99.90;;;;;;4995590;28;20508;-72
2023/01/08 08:24:05;;;;;;;5.05;1.80;;;7.00;99.90;;;;;;4996869;28;20132;-73
2023/01/08 08:26:31;;;;;;;7.25;2.38;;;7.10;99.90;;;;;;5013815;28;20052;-75
2023/01/08 08:29:03;;;;;;;7.57;2.38;;;7.20;99.90;;;;;;4995152;28;20041;-72
2023/01/08 08:31:29;;;;;;;11.45;2.08;;;7.20;99.90;;;;;;5013475;28;20096;-75
2023/01/08 08:34:01;;;;;;;8.32;2.47;;;7.30;99.90;;;;;;5013038;28;20030;-74
2023/01/08 08:36:29;;;;;;;6.80;1.90;;;7.40;99.90;;;;;;4995908;28;20516;-75
2023/01/08 08:39:00;;;;;;;3.90;1.88;;;7.40;99.90;;;;;;5013685;28;20475;-75
2023/01/08 08:41:26;;;;;;;3.67;1.50;;;7.50;99.90;;;;;;4995452;28;20038;-71
2023/01/08 08:43:58;;;;;;;3.90;1.42;;;7.70;99.90;;;;;;4996133;28;20038;-73
2023/01/08 08:46:24;;;;;;;5.55;1.48;;;7.90;99.90;;;;;;5013562;28;20042;-73
2023/01/08 08:48:56;;;;;;;8.18;1.92;;;8.10;99.90;;;;;;5012975;28;20049;-74
2023/01/08 08:51:22;;;;;;;6.53;1.50;;;8.20;99.90;;;;;;5013382;28;20046;-74
2023/01/08 08:53:54;;;;;;;4.55;1.60;;;8.30;99.90;;;;;;5013269;28;20037;-72
2023/01/08 08:56:28;;;;;;;9.30;1.88;;;8.50;99.90;;;;;;4995097;28;20046;-74
2023/01/08 08:59:01;;;;;;;5.53;1.70;;;8.80;99.90;;;;;;5006866;28;20563;-73
2023/01/08 09:01:41;;;;;;;13.93;2.97;;;9.00;99.90;;;;;;5018744;28;20406;-72
2023/01/08 09:04:13;;;;;;;4.47;1.48;;;9.20;99.90;;;;;;5014158;28;20098;-71
2023/01/08 09:06:48;;;;;;;5.28;1.50;;;9.40;99.90;;;;;;5013037;28;20046;-71
2023/01/08 09:09:14;;;;;;;4.50;1.52;;;9.50;99.90;;;;;;5012500;28;20169;-70
2023/01/08 09:11:40;;;;;;;9.18;1.60;;;9.60;99.90;;;;;;5012828;28;20125;-70
2023/01/08 09:14:12;;;;;;;6.47;2.00;;;9.80;99.90;;;;;;4995179;28;20041;-71
2023/01/08 09:16:38;;;;;;;4.38;1.38;;;9.90;99.90;;;;;;4994406;28;20418;-71
2023/01/08 09:19:10;;;;;;;3.35;1.50;;;10.00;99.90;;;;;;4995328;28;20044;-72
2023/01/08 09:21:36;;;;;;;6.00;1.42;;;10.10;99.90;;;;;;5012990;28;20112;-73
2023/01/08 09:24:09;;;;;;;3.72;1.30;;;10.20;99.90;;;;;;5012352;28;20438;-73
2023/01/08 09:26:35;;;;;;;5.35;1.42;;;10.30;99.90;;;;;;4995050;28;20053;-72
2023/01/08 09:29:08;;;;;;;6.22;1.20;;;10.30;99.90;;;;;;4995265;28;20052;-71
2023/01/08 09:31:34;;;;;;;3.03;1.20;;;10.40;99.90;;;;;;5004209;28;20038;-73
2023/01/08 09:34:06;;;;;;;4.38;1.83;;;10.50;99.90;;;;;;4998287;28;20559;-73
2023/01/08 09:36:32;;;;;;;4.32;1.13;;;10.70;99.90;;;;;;5014928;28;20037;-72
2023/01/08 09:39:05;;;;;;;7.55;1.92;;;10.90;99.90;;;;;;5013893;28;20048;-72
2023/01/08 09:41:34;;;;;;;5.40;1.80;;;11.00;99.90;;;;;;4995354;28;20467;-68
2023/01/08 09:44:20;;;;;;;6.95;1.58;;;11.10;99.90;;;;;;4994676;28;20036;-69
2023/01/08 09:46:53;;;;;;;4.82;1.55;;;11.30;99.90;;;;;;4995774;28;20038;-68
2023/01/08 09:49:39;;;;;;;4.50;1.42;;;11.40;99.90;;;;;;4996105;28;20042;-71
2023/01/08 09:52:11;;;;;;;6.38;1.60;;;11.60;99.90;;;;;;4993845;28;20033;-69
2023/01/08 09:54:38;;;;;;;5.85;1.27;;;11.60;99.90;;;;;;5010586;28;20556;-70
2023/01/08 09:57:10;;;;;;;3.65;1.33;;;12.00;99.90;;;;;;4996193;28;20042;-72
2023/01/08 09:59:46;;;;;;;7.80;1.92;;;12.20;99.90;;;;;;4992608;28;20047;-73
2023/01/08 10:02:34;;;;;;;6.15;1.70;;;12.40;99.90;;;;;;4994362;28;20057;-69
2023/01/08 10:05:01;;;;;;;6.13;1.45;;;12.70;99.90;;;;;;5013594;28;20564;-71
2023/01/08 10:07:34;;;;;;;10.32;2.13;;;13.00;99.90;;;;;;5032900;28;20057;-68
2023/01/08 10:10:00;;;;;;;6.90;1.80;;;13.10;99.90;;;;;;5014521;28;20049;-71
2023/01/08 10:12:37;;;;;;;5.55;1.85;;;13.20;99.90;;;;;;5015289;28;20052;-71
2023/01/08 10:15:07;;;;;;;6.97;1.73;;;13.10;99.90;;;;;;5031360;28;20045;-71
2023/01/08 10:17:50;;;;;;;4.30;1.33;;;13.00;99.90;;;;;;5014290;28;20049;-68
2023/01/08 10:20:20;;;;;;;4.90;1.02;;;12.80;99.90;;;;;;4997226;28;20095;-71
2023/01/08 10:22:53;;;;;;;8.45;1.75;;;12.80;99.90;;;;;;5031966;28;20148;-71
2023/01/08 10:25:21;;;;;;;7.30;2.17;;;12.70;99.90;;;;;;5013468;28;20045;-72
2023/01/08 10:28:07;;;;;;;7.28;2.38;;;12.90;99.90;;;;;;5031030;28;20037;-71
2023/01/08 10:30:40;;;;;;;9.20;2.15;;;12.80;99.90;;;;;;4996935;28;20048;-72
2023/01/08 10:33:29;;;;;;;9.85;1.90;;;12.80;99.90;;;;;;5030136;28;20099;-70
2023/01/08 10:36:03;;;;;;;8.87;1.93;;;12.90;99.90;;;;;;5018184;28;20038;-71
2023/01/08 10:38:38;;;;;;;9.70;2.33;;;13.00;99.90;;;;;;5031025;28;20042;-72
2023/01/08 10:41:09;;;;;;;9.35;1.95;;;13.20;99.90;;;;;;4997059;28;20360;-71
2023/01/08 10:43:47;;;;;;;9.90;1.85;;;13.20;99.90;;;;;;5014085;28;20370;-72
2023/01/08 10:46:21;;;;;;;8.90;2.20;;;12.90;99.90;;;;;;5013950;28;20051;-71
2023/01/08 10:48:58;;;;;;;9.75;1.40;;;12.50;99.90;;;;;;5032567;28;20096;-71
2023/01/08 10:51:27;;;;;;;5.20;1.15;;;12.00;99.90;;;;;;5031192;28;20033;-72
2023/01/08 10:54:00;;;;;;;6.57;1.70;;;11.80;99.90;;;;;;5032421;28;20045;-69
2023/01/08 10:56:39;;;;;;;10.70;2.20;;;11.70;99.90;;;;;;5050604;28;20114;-72
2023/01/08 10:59:11;;;;;;;12.05;2.60;;;11.90;99.90;;;;;;5050710;28;20569;-70
2023/01/08 11:02:01;;;;;;;11.38;2.30;;;11.70;99.90;;;;;;5032042;28;20051;-71
2023/01/08 11:04:34;;;;;;;7.18;1.60;;;11.60;99.90;;;;;;5051006;28;20045;-70
2023/01/08 11:07:12;;;;;;;8.85;2.08;;;12.20;99.90;;;;;;5050787;28;20116;-71
2023/01/08 11:09:44;;;;;;;13.32;1.77;;;12.00;99.90;;;;;;5032491;28;20045;-71
2023/01/08 11:12:45;;;;;;;10.40;1.77;;;12.00;99.90;;;;;;5032556;28;20041;-71
2023/01/08 11:15:21;;;;;;;6.95;1.85;;;11.60;99.90;;;;;;5049133;28;20076;-72
2023/01/08 11:17:53;;;;;;;7.95;1.95;;;11.70;99.90;;;;;;5050236;28;20037;-71
2023/01/08 11:20:23;;;;;;;6.13;1.73;;;11.70;99.90;;;;;;5032484;28;20091;-70
2023/01/08 11:22:55;;;;;;;8.35;2.00;;;11.70;99.90;;;;;;5050128;28;20041;-71
2023/01/08 11:25:26;;;;;;;6.18;2.08;;;11.70;99.90;;;;;;5037409;28;20045;-71
2023/01/08 11:27:59;;;;;;;9.35;2.10;;;11.50;99.90;;;;;;5012880;28;20041;-70
2023/01/08 11:30:26;;;;;;;6.85;1.42;;;11.20;99.90;;;;;;5012662;28;20048;-70
2023/01/08 11:33:23;;;;;;;6.45;1.40;;;11.20;99.90;;;;;;5012772;28;20125;-68
2023/01/08 11:35:55;;;;;;;11.38;2.03;;;11.00;99.90;;;;;;5030378;28;20041;-71
2023/01/08 11:38:27;;;;;;;9.35;2.00;;;10.50;99.90;;;;;;5016575;28;20124;-72
2023/01/08 11:41:08;;;;;;;8.73;1.98;;;10.40;99.90;;;;;;5034674;28;20482;-70
2023/01/08 11:44:18;;;;;;;8.68;2.22;;;10.40;99.90;;;;;;5016063;28;20041;-70
2023/01/08 11:47:10;;;;;;;8.10;2.50;;;10.50;99.90;;;;;;5001927;28;20035;-71
2023/01/08 11:49:36;;;;;;;5.53;1.67;;;10.70;99.90;;;;;;4985655;28;20046;-70
2023/01/08 11:52:17;;;;;;;10.20;2.67;;;11.20;99.90;;;;;;4991871;28;20030;-71
2023/01/08 11:55:10;;;;;;;14.13;2.95;;;11.30;99.90;;;;;;4996829;28;20129;-70
2023/01/08 11:57:51;;;;;;;7.80;1.90;;;11.10;99.90;;;;;;5014214;28;20502;-73
2023/01/08 12:00:51;;;;;;;7.85;2.47;;;11.10;99.90;;;;;;4997282;28;20057;-71
2023/01/08 12:03:45;;;;;;;12.20;3.03;;;11.00;99.90;;;;;;4981511;28;20042;-71
2023/01/08 12:06:20;;;;;;;10.38;2.60;;;11.10;99.90;;;;;;4996322;28;20112;-71
2023/01/08 12:09:13;;;;;;;7.63;2.85;;;11.30;99.90;;;;;;5014186;28;20038;-70
2023/01/08 12:12:02;;;;;;;10.10;2.00;;;11.10;99.90;;;;;;4979488;28;20049;-70
2023/01/08 12:14:49;;;;;;;6.07;2.10;;;10.60;99.90;;;;;;4996748;28;20060;-70
2023/01/08 12:17:42;;;;;;;7.20;2.33;;;10.30;99.90;;;;;;4996393;28;20529;-69
2023/01/08 12:20:34;;;;;;;9.55;2.50;;;10.20;99.90;;;;;;4995727;28;20046;-70
2023/01/08 12:23:16;;;;;;;9.00;2.22;;;10.10;99.90;;;;;;5013847;28;20044;-72
2023/01/08 12:25:54;;;;;;;10.38;2.72;;;10.20;99.90;;;;;;4995957;28;20041;-72
2023/01/08 12:28:42;;;;;;;14.48;2.85;;;10.40;99.90;;;;;;4994704;28;20038;-70
2023/01/08 12:31:29;;;;;;;7.38;2.03;;;10.30;99.90;;;;;;4995990;28;20135;-67
2023/01/08 12:34:45;;;;;;;10.65;2.33;;;10.20;99.90;;;;;;4995484;28;20050;-69
2023/01/08 12:37:32;;;;;;;3.00;1.67;;;10.20;99.90;;;;;;4933837;29;20124;-70
2023/01/08 12:40:14;;;;;;;15.77;2.97;;;10.00;99.90;;;;;;4936598;29;20074;-69
2023/01/08 12:42:49;;;;;;;7.75;1.92;;;10.00;99.90;;;;;;4952721;29;20069;-70
2023/01/08 12:45:39;;;;;;;12.77;2.22;;;10.00;99.90;;;;;;4936709;29;20059;-70
2023/01/08 12:48:24;;;;;;;10.25;2.00;;;10.10;99.90;;;;;;4949212;28;20081;-70
2023/01/08 12:50:58;;;;;;;10.57;2.55;;;10.00;99.90;;;;;;4936473;29;20048;-72
2023/01/08 12:53:51;;;;;;;8.65;2.17;;;9.90;99.90;;;;;;4941802;29;20075;-71
2023/01/08 12:56:50;;;;;;;9.65;2.00;;;9.90;99.90;;;;;;4938336;29;20075;-71
2023/01/08 12:59:49;;;;;;;4.30;1.67;;;9.80;99.90;;;;;;4948175;28;20361;-71
2023/01/08 13:02:59;;;;;;;12.63;3.00;;;9.70;99.90;;;;;;4926174;29;20131;-71
2023/01/08 13:05:29;;;;;;;8.15;1.60;;;9.60;99.90;;;;;;4930814;29;20043;-70
2023/01/08 13:08:05;;;;;;;11.63;1.90;;;9.60;99.90;;;;;;4929014;29;20039;-72
2023/01/08 13:10:34;;;;;;;11.00;2.13;;;9.60;99.90;;;;;;4973040;28;20045;-70
2023/01/08 13:13:07;;;;;;;11.43;2.10;;;9.70;99.90;;;;;;5012348;28;20429;-70
2023/01/08 13:15:34;;;;;;;8.77;1.52;;;9.90;99.90;;;;;;4985628;28;20529;-70
2023/01/08 13:18:23;;;;;;;10.25;2.08;;;10.00;99.90;;;;;;5028306;28;20612;-69
2023/01/08 13:20:59;;;;;;;6.30;1.70;;;9.90;99.90;;;;;;4992665;28;20454;-69
2023/01/08 13:23:37;;;;;;;7.35;2.03;;;10.00;99.90;;;;;;5008273;28;20044;-71
2023/01/08 13:26:05;;;;;;;4.28;1.40;;;9.90;99.90;;;;;;5023806;28;20124;-73
2023/01/08 13:28:43;;;;;;;10.07;1.95;;;9.80;99.90;;;;;;4992287;28;20042;-72
2023/01/08 13:31:09;;;;;;;9.70;1.77;;;9.70;99.90;;;;;;4993290;28;20038;-69